sensor_id;sensor_type;location;lat;lon;timestamp;P1;durP1;ratioP1;P2;durP2;ratioP2
69434;SDS011;56625;54.322;18.582;2023-11-21T00:01:17;10.40;;;4.20;;
69434;SDS011;56625;54.322;18.582;2023-11-21T00:03:45;12.20;;;4.40;;
69434;SDS011;56625;54.322;18.582;2023-11-21T00:06:13;10.80;;;4.20;;
69434;SDS011;56625;54.322;18.582;2023-11-21T00:08:42;13.70;;;4.60;;
69434;SDS011;56625;54.322;18.582;2023-11-21T00:11:10;14.80;;;4.40;;
69434;SDS011;56625;54.322;18.582;2023-11-21T00:13:38;12.90;;;5.00;;
69434;SDS011;56625;54.322;18.582;2023-11-21T00:16:07;13.80;;;5.50;;
69434;SDS011;56625;54.322;18.582;2023-11-21T00:18:35;15.00;;;4.80;;
69434;SDS011;56625;54.322;18.582;2023-11-21T00:21:03;11.40;;;4.30;;
69434;SDS011;56625;54.322;18.582;2023-11-21T00:23:31;12.90;;;4.50;;
69434;SDS011;56625;54.322;18.582;2023-11-21T00:25:59;13.80;;;5.10;;
69434;SDS011;56625;54.322;18.582;2023-11-21T00:28:27;12.70;;;4.70;;
69434;SDS011;56625;54.322;18.582;2023-11-21T00:30:55;13.50;;;4.70;;
69434;SDS011;56625;54.322;18.582;2023-11-21T00:33:23;14.80;;;4.80;;
69434;SDS011;56625;54.322;18.582;2023-11-21T00:35:53;12.90;;;4.90;;
69434;SDS011;56625;54.322;18.582;2023-11-21T00:38:21;14.20;;;5.40;;
69434;SDS011;56625;54.322;18.582;2023-11-21T00:40:49;12.20;;;4.00;;
69434;SDS011;56625;54.322;18.582;2023-11-21T00:43:17;14.10;;;4.90;;
69434;SDS011;56625;54.322;18.582;2023-11-21T00:45:45;10.70;;;4.00;;
69434;SDS011;56625;54.322;18.582;2023-11-21T00:48:13;12.00;;;3.90;;
69434;SDS011;56625;54.322;18.582;2023-11-21T00:50:42;10.40;;;3.60;;
69434;SDS011;56625;54.322;18.582;2023-11-21T00:53:10;9.50;;;3.60;;
69434;SDS011;56625;54.322;18.582;2023-11-21T00:55:41;10.10;;;3.10;;
69434;SDS011;56625;54.322;18.582;2023-11-21T00:58:09;10.90;;;3.90;;
69434;SDS011;56625;54.322;18.582;2023-11-21T01:00:38;12.30;;;3.80;;
69434;SDS011;56625;54.322;18.582;2023-11-21T01:03:07;9.00;;;3.10;;
69434;SDS011;56625;54.322;18.582;2023-11-21T01:05:35;8.90;;;2.50;;
69434;SDS011;56625;54.322;18.582;2023-11-21T01:08:04;9.30;;;2.90;;
69434;SDS011;56625;54.322;18.582;2023-11-21T01:10:51;12.20;;;4.00;;
69434;SDS011;56625;54.322;18.582;2023-11-21T01:13:19;10.50;;;3.40;;
69434;SDS011;56625;54.322;18.582;2023-11-21T01:15:47;7.50;;;2.50;;
69434;SDS011;56625;54.322;18.582;2023-11-21T01:18:15;9.90;;;3.10;;
69434;SDS011;56625;54.322;18.582;2023-11-21T01:20:43;9.80;;;3.20;;
69434;SDS011;56625;54.322;18.582;2023-11-21T01:23:11;11.40;;;3.30;;
69434;SDS011;56625;54.322;18.582;2023-11-21T01:25:42;8.50;;;3.00;;
69434;SDS011;56625;54.322;18.582;2023-11-21T01:28:10;10.20;;;3.20;;
69434;SDS011;56625;54.322;18.582;2023-11-21T01:30:38;8.80;;;2.80;;
69434;SDS011;56625;54.322;18.582;2023-11-21T01:33:06;8.90;;;2.90;;
69434;SDS011;56625;54.322;18.582;2023-11-21T01:35:35;12.10;;;3.80;;
69434;SDS011;56625;54.322;18.582;2023-11-21T01:38:03;10.10;;;3.30;;
69434;SDS011;56625;54.322;18.582;2023-11-21T01:40:31;7.80;;;2.50;;
69434;SDS011;56625;54.322;18.582;2023-11-21T01:42:59;8.30;;;2.90;;
69434;SDS011;56625;54.322;18.582;2023-11-21T01:45:27;9.10;;;3.00;;
69434;SDS011;56625;54.322;18.582;2023-11-21T01:47:57;7.40;;;2.80;;
69434;SDS011;56625;54.322;18.582;2023-11-21T01:50:29;8.40;;;2.90;;
69434;SDS011;56625;54.322;18.582;2023-11-21T01:52:57;8.60;;;2.80;;
69434;SDS011;56625;54.322;18.582;2023-11-21T01:55:25;9.00;;;2.70;;
69434;SDS011;56625;54.322;18.582;2023-11-21T01:57:56;7.70;;;2.50;;
69434;SDS011;56625;54.322;18.582;2023-11-21T02:00:26;8.60;;;2.90;;
69434;SDS011;56625;54.322;18.582;2023-11-21T02:02:57;8.70;;;2.40;;
69434;SDS011;56625;54.322;18.582;2023-11-21T02:05:28;9.10;;;3.00;;
69434;SDS011;56625;54.322;18.582;2023-11-21T02:07:57;9.10;;;3.00;;
69434;SDS011;56625;54.322;18.582;2023-11-21T02:10:25;7.10;;;2.60;;
69434;SDS011;56625;54.322;18.582;2023-11-21T02:12:54;8.40;;;2.50;;
69434;SDS011;56625;54.322;18.582;2023-11-21T02:15:24;8.20;;;2.70;;
69434;SDS011;56625;54.322;18.582;2023-11-21T02:17:56;10.70;;;3.00;;
69434;SDS011;56625;54.322;18.582;2023-11-21T02:20:26;10.30;;;2.70;;
69434;SDS011;56625;54.322;18.582;2023-11-21T02:22:57;8.40;;;2.50;;
69434;SDS011;56625;54.322;18.582;2023-11-21T02:25:31;8.10;;;2.40;;
69434;SDS011;56625;54.322;18.582;2023-11-21T02:28:03;8.10;;;2.60;;
69434;SDS011;56625;54.322;18.582;2023-11-21T02:30:31;7.60;;;2.20;;
69434;SDS011;56625;54.322;18.582;2023-11-21T02:33:01;7.10;;;2.10;;
69434;SDS011;56625;54.322;18.582;2023-11-21T02:35:30;9.60;;;2.60;;
69434;SDS011;56625;54.322;18.582;2023-11-21T02:38:00;8.40;;;2.70;;
69434;SDS011;56625;54.322;18.582;2023-11-21T02:40:28;10.10;;;2.60;;
69434;SDS011;56625;54.322;18.582;2023-11-21T02:42:57;7.30;;;2.20;;
69434;SDS011;56625;54.322;18.582;2023-11-21T02:45:27;7.60;;;2.60;;
69434;SDS011;56625;54.322;18.582;2023-11-21T02:47:55;8.20;;;2.60;;
69434;SDS011;56625;54.322;18.582;2023-11-21T02:50:26;7.70;;;2.30;;
69434;SDS011;56625;54.322;18.582;2023-11-21T02:52:55;8.20;;;2.30;;
69434;SDS011;56625;54.322;18.582;2023-11-21T02:55:27;8.10;;;2.70;;
69434;SDS011;56625;54.322;18.582;2023-11-21T02:57:55;8.10;;;2.40;;
69434;SDS011;56625;54.322;18.582;2023-11-21T03:00:26;7.90;;;2.40;;
69434;SDS011;56625;54.322;18.582;2023-11-21T03:02:56;7.90;;;2.60;;
69434;SDS011;56625;54.322;18.582;2023-11-21T03:05:25;8.10;;;2.40;;
69434;SDS011;56625;54.322;18.582;2023-11-21T03:07:53;8.50;;;2.80;;
69434;SDS011;56625;54.322;18.582;2023-11-21T03:10:21;8.80;;;2.70;;
69434;SDS011;56625;54.322;18.582;2023-11-21T03:12:49;7.60;;;2.20;;
69434;SDS011;56625;54.322;18.582;2023-11-21T03:15:17;7.90;;;2.50;;
69434;SDS011;56625;54.322;18.582;2023-11-21T03:17:45;7.60;;;2.60;;
69434;SDS011;56625;54.322;18.582;2023-11-21T03:20:13;8.30;;;2.70;;
69434;SDS011;56625;54.322;18.582;2023-11-21T03:22:41;8.70;;;2.40;;
69434;SDS011;56625;54.322;18.582;2023-11-21T03:25:09;8.60;;;2.50;;
69434;SDS011;56625;54.322;18.582;2023-11-21T03:27:39;8.30;;;2.60;;
69434;SDS011;56625;54.322;18.582;2023-11-21T03:30:08;8.10;;;2.30;;
69434;SDS011;56625;54.322;18.582;2023-11-21T03:32:37;8.00;;;2.60;;
69434;SDS011;56625;54.322;18.582;2023-11-21T03:35:05;9.20;;;3.00;;
69434;SDS011;56625;54.322;18.582;2023-11-21T03:37:34;8.50;;;2.60;;
69434;SDS011;56625;54.322;18.582;2023-11-21T03:40:03;9.50;;;3.10;;
69434;SDS011;56625;54.322;18.582;2023-11-21T03:42:32;7.90;;;2.70;;
69434;SDS011;56625;54.322;18.582;2023-11-21T03:45:00;7.80;;;2.80;;
69434;SDS011;56625;54.322;18.582;2023-11-21T03:47:28;9.00;;;2.90;;
69434;SDS011;56625;54.322;18.582;2023-11-21T03:49:56;8.50;;;2.70;;
69434;SDS011;56625;54.322;18.582;2023-11-21T03:52:25;8.60;;;2.60;;
69434;SDS011;56625;54.322;18.582;2023-11-21T03:54:53;8.20;;;2.70;;
69434;SDS011;56625;54.322;18.582;2023-11-21T03:57:21;9.60;;;3.20;;
69434;SDS011;56625;54.322;18.582;2023-11-21T03:59:49;8.80;;;3.00;;
69434;SDS011;56625;54.322;18.582;2023-11-21T04:02:17;7.90;;;2.50;;
69434;SDS011;56625;54.322;18.582;2023-11-21T04:04:45;7.50;;;2.70;;
69434;SDS011;56625;54.322;18.582;2023-11-21T04:07:13;7.10;;;2.10;;
69434;SDS011;56625;54.322;18.582;2023-11-21T04:09:41;8.40;;;2.40;;
69434;SDS011;56625;54.322;18.582;2023-11-21T04:12:09;9.00;;;2.70;;
69434;SDS011;56625;54.322;18.582;2023-11-21T04:14:37;8.70;;;2.50;;
69434;SDS011;56625;54.322;18.582;2023-11-21T04:17:06;7.60;;;2.10;;
69434;SDS011;56625;54.322;18.582;2023-11-21T04:19:34;8.20;;;2.60;;
69434;SDS011;56625;54.322;18.582;2023-11-21T04:22:02;9.00;;;2.80;;
69434;SDS011;56625;54.322;18.582;2023-11-21T04:24:31;8.50;;;2.90;;
69434;SDS011;56625;54.322;18.582;2023-11-21T04:26:59;9.10;;;3.00;;
69434;SDS011;56625;54.322;18.582;2023-11-21T04:29:27;7.60;;;2.40;;
69434;SDS011;56625;54.322;18.582;2023-11-21T04:31:55;8.70;;;2.30;;
69434;SDS011;56625;54.322;18.582;2023-11-21T04:34:23;11.40;;;2.90;;
69434;SDS011;56625;54.322;18.582;2023-11-21T04:36:51;8.90;;;2.80;;
69434;SDS011;56625;54.322;18.582;2023-11-21T04:39:20;9.10;;;3.00;;
69434;SDS011;56625;54.322;18.582;2023-11-21T04:41:48;8.70;;;2.60;;
69434;SDS011;56625;54.322;18.582;2023-11-21T04:44:16;8.40;;;2.80;;
69434;SDS011;56625;54.322;18.582;2023-11-21T04:46:44;8.80;;;3.00;;
69434;SDS011;56625;54.322;18.582;2023-11-21T04:49:13;9.60;;;3.10;;
69434;SDS011;56625;54.322;18.582;2023-11-21T04:51:42;12.10;;;3.20;;
69434;SDS011;56625;54.322;18.582;2023-11-21T04:54:10;8.80;;;2.80;;
69434;SDS011;56625;54.322;18.582;2023-11-21T04:56:38;8.80;;;3.00;;
69434;SDS011;56625;54.322;18.582;2023-11-21T04:59:06;9.30;;;3.40;;
69434;SDS011;56625;54.322;18.582;2023-11-21T05:01:34;9.10;;;3.00;;
69434;SDS011;56625;54.322;18.582;2023-11-21T05:04:02;9.30;;;3.60;;
69434;SDS011;56625;54.322;18.582;2023-11-21T05:06:30;9.50;;;3.10;;
69434;SDS011;56625;54.322;18.582;2023-11-21T05:08:58;11.50;;;2.90;;
69434;SDS011;56625;54.322;18.582;2023-11-21T05:11:27;11.40;;;3.30;;
69434;SDS011;56625;54.322;18.582;2023-11-21T05:13:56;9.20;;;3.40;;
69434;SDS011;56625;54.322;18.582;2023-11-21T05:16:26;12.50;;;3.60;;
69434;SDS011;56625;54.322;18.582;2023-11-21T05:18:55;12.30;;;3.30;;
69434;SDS011;56625;54.322;18.582;2023-11-21T05:21:28;9.90;;;3.20;;
69434;SDS011;56625;54.322;18.582;2023-11-21T05:23:58;12.70;;;3.80;;
69434;SDS011;56625;54.322;18.582;2023-11-21T05:26:27;12.00;;;3.10;;
69434;SDS011;56625;54.322;18.582;2023-11-21T05:28:55;9.30;;;2.70;;
69434;SDS011;56625;54.322;18.582;2023-11-21T05:31:23;10.20;;;3.10;;
69434;SDS011;56625;54.322;18.582;2023-11-21T05:33:51;9.70;;;3.20;;
69434;SDS011;56625;54.322;18.582;2023-11-21T05:36:20;12.40;;;3.90;;
69434;SDS011;56625;54.322;18.582;2023-11-21T05:38:48;16.40;;;4.00;;
69434;SDS011;56625;54.322;18.582;2023-11-21T05:41:16;14.70;;;3.80;;
69434;SDS011;56625;54.322;18.582;2023-11-21T05:43:44;9.40;;;3.10;;
69434;SDS011;56625;54.322;18.582;2023-11-21T05:46:12;9.90;;;3.10;;
69434;SDS011;56625;54.322;18.582;2023-11-21T05:48:41;12.40;;;3.60;;
69434;SDS011;56625;54.322;18.582;2023-11-21T05:51:09;9.30;;;3.30;;
69434;SDS011;56625;54.322;18.582;2023-11-21T05:53:40;9.40;;;3.30;;
69434;SDS011;56625;54.322;18.582;2023-11-21T05:56:08;10.50;;;3.20;;
69434;SDS011;56625;54.322;18.582;2023-11-21T05:58:36;10.10;;;3.10;;
69434;SDS011;56625;54.322;18.582;2023-11-21T06:01:05;10.30;;;3.40;;
69434;SDS011;56625;54.322;18.582;2023-11-21T06:03:37;9.00;;;2.90;;
69434;SDS011;56625;54.322;18.582;2023-11-21T06:06:05;11.50;;;3.70;;
69434;SDS011;56625;54.322;18.582;2023-11-21T06:08:34;12.90;;;3.80;;
69434;SDS011;56625;54.322;18.582;2023-11-21T06:11:03;13.50;;;3.80;;
69434;SDS011;56625;54.322;18.582;2023-11-21T06:13:33;11.90;;;3.50;;
69434;SDS011;56625;54.322;18.582;2023-11-21T06:16:10;10.90;;;3.70;;
69434;SDS011;56625;54.322;18.582;2023-11-21T06:18:38;11.30;;;3.40;;
69434;SDS011;56625;54.322;18.582;2023-11-21T06:21:09;7.80;;;2.90;;
69434;SDS011;56625;54.322;18.582;2023-11-21T06:23:37;14.10;;;3.20;;
69434;SDS011;56625;54.322;18.582;2023-11-21T06:26:06;9.70;;;2.90;;
69434;SDS011;56625;54.322;18.582;2023-11-21T06:28:34;10.10;;;3.00;;
69434;SDS011;56625;54.322;18.582;2023-11-21T06:31:04;9.80;;;3.30;;
69434;SDS011;56625;54.322;18.582;2023-11-21T06:33:33;9.70;;;3.50;;
69434;SDS011;56625;54.322;18.582;2023-11-21T06:36:01;9.20;;;3.00;;
69434;SDS011;56625;54.322;18.582;2023-11-21T06:38:34;9.20;;;2.90;;
69434;SDS011;56625;54.322;18.582;2023-11-21T06:41:02;10.50;;;3.30;;
69434;SDS011;56625;54.322;18.582;2023-11-21T06:43:32;11.10;;;2.70;;
69434;SDS011;56625;54.322;18.582;2023-11-21T06:46:00;9.90;;;3.00;;
69434;SDS011;56625;54.322;18.582;2023-11-21T06:48:29;9.70;;;3.00;;
69434;SDS011;56625;54.322;18.582;2023-11-21T06:50:58;11.80;;;3.50;;
69434;SDS011;56625;54.322;18.582;2023-11-21T06:53:26;11.50;;;3.10;;
69434;SDS011;56625;54.322;18.582;2023-11-21T06:55:54;11.80;;;3.20;;
69434;SDS011;56625;54.322;18.582;2023-11-21T06:58:22;10.60;;;3.50;;
69434;SDS011;56625;54.322;18.582;2023-11-21T07:00:52;9.30;;;3.30;;
69434;SDS011;56625;54.322;18.582;2023-11-21T07:03:23;9.50;;;3.10;;
69434;SDS011;56625;54.322;18.582;2023-11-21T07:05:52;8.90;;;2.80;;
69434;SDS011;56625;54.322;18.582;2023-11-21T07:08:20;9.70;;;3.10;;
69434;SDS011;56625;54.322;18.582;2023-11-21T07:10:48;9.30;;;3.00;;
69434;SDS011;56625;54.322;18.582;2023-11-21T07:13:17;11.00;;;3.30;;
69434;SDS011;56625;54.322;18.582;2023-11-21T07:15:45;11.80;;;3.60;;
69434;SDS011;56625;54.322;18.582;2023-11-21T07:18:13;10.70;;;3.70;;
69434;SDS011;56625;54.322;18.582;2023-11-21T07:20:41;11.10;;;3.90;;
69434;SDS011;56625;54.322;18.582;2023-11-21T07:23:09;12.00;;;4.00;;
69434;SDS011;56625;54.322;18.582;2023-11-21T07:25:38;10.00;;;3.20;;
69434;SDS011;56625;54.322;18.582;2023-11-21T07:28:06;9.70;;;3.40;;
69434;SDS011;56625;54.322;18.582;2023-11-21T07:30:34;11.40;;;3.80;;
69434;SDS011;56625;54.322;18.582;2023-11-21T07:33:02;9.90;;;3.00;;
69434;SDS011;56625;54.322;18.582;2023-11-21T07:35:30;10.70;;;3.20;;
69434;SDS011;56625;54.322;18.582;2023-11-21T07:37:58;10.70;;;3.50;;
69434;SDS011;56625;54.322;18.582;2023-11-21T07:40:27;8.60;;;3.20;;
69434;SDS011;56625;54.322;18.582;2023-11-21T07:42:58;8.60;;;3.20;;
69434;SDS011;56625;54.322;18.582;2023-11-21T07:45:27;10.90;;;2.90;;
69434;SDS011;56625;54.322;18.582;2023-11-21T07:47:55;10.60;;;3.10;;
69434;SDS011;56625;54.322;18.582;2023-11-21T07:50:24;10.20;;;3.50;;
69434;SDS011;56625;54.322;18.582;2023-11-21T07:52:52;9.90;;;3.30;;
69434;SDS011;56625;54.322;18.582;2023-11-21T07:55:22;8.10;;;2.70;;
69434;SDS011;56625;54.322;18.582;2023-11-21T07:57:50;8.40;;;2.70;;
69434;SDS011;56625;54.322;18.582;2023-11-21T08:00:18;8.20;;;2.70;;
69434;SDS011;56625;54.322;18.582;2023-11-21T08:02:48;9.40;;;2.70;;
69434;SDS011;56625;54.322;18.582;2023-11-21T08:05:17;10.00;;;2.70;;
69434;SDS011;56625;54.322;18.582;2023-11-21T08:07:58;9.10;;;2.70;;
69434;SDS011;56625;54.322;18.582;2023-11-21T08:10:26;8.00;;;2.70;;
69434;SDS011;56625;54.322;18.582;2023-11-21T08:12:54;8.90;;;2.50;;
69434;SDS011;56625;54.322;18.582;2023-11-21T08:15:22;7.30;;;2.50;;
69434;SDS011;56625;54.322;18.582;2023-11-21T08:17:50;8.50;;;2.70;;
69434;SDS011;56625;54.322;18.582;2023-11-21T08:20:19;9.40;;;2.90;;
69434;SDS011;56625;54.322;18.582;2023-11-21T08:22:47;8.90;;;2.90;;
69434;SDS011;56625;54.322;18.582;2023-11-21T08:25:16;8.30;;;2.70;;
69434;SDS011;56625;54.322;18.582;2023-11-21T08:27:48;6.50;;;2.20;;
69434;SDS011;56625;54.322;18.582;2023-11-21T08:30:16;7.70;;;2.50;;
69434;SDS011;56625;54.322;18.582;2023-11-21T08:32:47;9.70;;;2.50;;
69434;SDS011;56625;54.322;18.582;2023-11-21T08:35:15;7.70;;;2.20;;
69434;SDS011;56625;54.322;18.582;2023-11-21T08:37:43;8.00;;;2.30;;
69434;SDS011;56625;54.322;18.582;2023-11-21T08:40:12;7.10;;;2.20;;
69434;SDS011;56625;54.322;18.582;2023-11-21T08:42:45;9.60;;;2.20;;
69434;SDS011;56625;54.322;18.582;2023-11-21T08:45:14;6.10;;;2.00;;
69434;SDS011;56625;54.322;18.582;2023-11-21T08:47:43;7.40;;;2.10;;
69434;SDS011;56625;54.322;18.582;2023-11-21T08:50:14;7.10;;;1.60;;
69434;SDS011;56625;54.322;18.582;2023-11-21T08:52:44;5.70;;;1.50;;
69434;SDS011;56625;54.322;18.582;2023-11-21T08:55:14;7.00;;;2.50;;
69434;SDS011;56625;54.322;18.582;2023-11-21T08:57:44;8.10;;;1.60;;
69434;SDS011;56625;54.322;18.582;2023-11-21T09:00:14;7.40;;;1.70;;
69434;SDS011;56625;54.322;18.582;2023-11-21T09:02:45;6.70;;;1.50;;
69434;SDS011;56625;54.322;18.582;2023-11-21T09:05:14;5.10;;;1.70;;
69434;SDS011;56625;54.322;18.582;2023-11-21T09:07:44;5.80;;;1.60;;
69434;SDS011;56625;54.322;18.582;2023-11-21T09:10:14;10.10;;;1.80;;
69434;SDS011;56625;54.322;18.582;2023-11-21T09:12:42;6.50;;;1.70;;
69434;SDS011;56625;54.322;18.582;2023-11-21T09:15:11;7.30;;;1.50;;
69434;SDS011;56625;54.322;18.582;2023-11-21T09:17:39;6.00;;;1.60;;
69434;SDS011;56625;54.322;18.582;2023-11-21T09:20:08;6.70;;;1.70;;
69434;SDS011;56625;54.322;18.582;2023-11-21T09:22:39;6.40;;;1.70;;
69434;SDS011;56625;54.322;18.582;2023-11-21T09:25:07;6.50;;;1.50;;
69434;SDS011;56625;54.322;18.582;2023-11-21T09:27:36;6.90;;;1.40;;
69434;SDS011;56625;54.322;18.582;2023-11-21T09:30:05;7.90;;;1.60;;
69434;SDS011;56625;54.322;18.582;2023-11-21T09:32:38;4.90;;;1.10;;
69434;SDS011;56625;54.322;18.582;2023-11-21T09:35:08;6.30;;;1.20;;
69434;SDS011;56625;54.322;18.582;2023-11-21T09:37:44;6.20;;;1.30;;
69434;SDS011;56625;54.322;18.582;2023-11-21T09:40:21;5.70;;;1.10;;
69434;SDS011;56625;54.322;18.582;2023-11-21T09:42:55;4.30;;;0.90;;
69434;SDS011;56625;54.322;18.582;2023-11-21T09:45:26;4.70;;;1.10;;
69434;SDS011;56625;54.322;18.582;2023-11-21T09:47:57;7.00;;;1.30;;
69434;SDS011;56625;54.322;18.582;2023-11-21T09:50:26;3.90;;;1.00;;
69434;SDS011;56625;54.322;18.582;2023-11-21T09:55:39;5.60;;;1.50;;
69434;SDS011;56625;54.322;18.582;2023-11-21T09:58:13;5.40;;;1.40;;
69434;SDS011;56625;54.322;18.582;2023-11-21T10:00:53;6.40;;;1.60;;
69434;SDS011;56625;54.322;18.582;2023-11-21T10:03:21;7.00;;;1.60;;
69434;SDS011;56625;54.322;18.582;2023-11-21T10:05:50;6.40;;;1.80;;
69434;SDS011;56625;54.322;18.582;2023-11-21T10:08:22;7.00;;;1.20;;
69434;SDS011;56625;54.322;18.582;2023-11-21T10:10:56;8.20;;;1.90;;
69434;SDS011;56625;54.322;18.582;2023-11-21T10:13:28;7.30;;;1.30;;
69434;SDS011;56625;54.322;18.582;2023-11-21T10:15:58;4.70;;;1.40;;
69434;SDS011;56625;54.322;18.582;2023-11-21T10:18:28;5.50;;;1.50;;
69434;SDS011;56625;54.322;18.582;2023-11-21T10:20:57;8.40;;;1.70;;
69434;SDS011;56625;54.322;18.582;2023-11-21T10:23:25;7.80;;;2.00;;
69434;SDS011;56625;54.322;18.582;2023-11-21T10:25:53;7.30;;;2.00;;
69434;SDS011;56625;54.322;18.582;2023-11-21T10:28:27;5.50;;;1.60;;
69434;SDS011;56625;54.322;18.582;2023-11-21T10:30:55;6.00;;;1.40;;
69434;SDS011;56625;54.322;18.582;2023-11-21T10:33:27;6.50;;;1.50;;
69434;SDS011;56625;54.322;18.582;2023-11-21T10:35:59;6.40;;;1.50;;
69434;SDS011;56625;54.322;18.582;2023-11-21T10:38:33;9.70;;;2.00;;
69434;SDS011;56625;54.322;18.582;2023-11-21T10:41:11;5.60;;;1.40;;
69434;SDS011;56625;54.322;18.582;2023-11-21T10:43:43;5.40;;;1.30;;
69434;SDS011;56625;54.322;18.582;2023-11-21T10:46:13;6.80;;;1.40;;
69434;SDS011;56625;54.322;18.582;2023-11-21T10:48:42;4.60;;;1.10;;
69434;SDS011;56625;54.322;18.582;2023-11-21T10:51:10;6.60;;;1.50;;
69434;SDS011;56625;54.322;18.582;2023-11-21T10:53:42;5.10;;;1.10;;
69434;SDS011;56625;54.322;18.582;2023-11-21T10:56:14;7.20;;;1.50;;
69434;SDS011;56625;54.322;18.582;2023-11-21T10:58:49;7.10;;;1.70;;
69434;SDS011;56625;54.322;18.582;2023-11-21T11:01:21;5.90;;;1.70;;
69434;SDS011;56625;54.322;18.582;2023-11-21T11:03:54;6.80;;;1.80;;
69434;SDS011;56625;54.322;18.582;2023-11-21T11:06:23;7.40;;;1.70;;
69434;SDS011;56625;54.322;18.582;2023-11-21T11:08:55;7.60;;;2.10;;
69434;SDS011;56625;54.322;18.582;2023-11-21T11:11:25;8.70;;;2.00;;
69434;SDS011;56625;54.322;18.582;2023-11-21T11:13:53;6.20;;;1.50;;
69434;SDS011;56625;54.322;18.582;2023-11-21T11:16:23;7.10;;;1.70;;
69434;SDS011;56625;54.322;18.582;2023-11-21T11:18:52;4.70;;;1.10;;
69434;SDS011;56625;54.322;18.582;2023-11-21T11:21:27;5.50;;;1.00;;
69434;SDS011;56625;54.322;18.582;2023-11-21T11:24:49;4.70;;;1.00;;
69434;SDS011;56625;54.322;18.582;2023-11-21T11:31:04;5.50;;;1.50;;
69434;SDS011;56625;54.322;18.582;2023-11-21T11:33:55;5.90;;;1.40;;
69434;SDS011;56625;54.322;18.582;2023-11-21T11:36:36;5.90;;;1.40;;
69434;SDS011;56625;54.322;18.582;2023-11-21T11:39:34;6.10;;;1.70;;
69434;SDS011;56625;54.322;18.582;2023-11-21T11:42:08;4.80;;;1.40;;
69434;SDS011;56625;54.322;18.582;2023-11-21T11:47:16;6.00;;;1.50;;
69434;SDS011;56625;54.322;18.582;2023-11-21T11:52:52;5.70;;;1.50;;
69434;SDS011;56625;54.322;18.582;2023-11-21T11:55:24;10.60;;;2.10;;
69434;SDS011;56625;54.322;18.582;2023-11-21T11:57:53;6.00;;;1.50;;
69434;SDS011;56625;54.322;18.582;2023-11-21T12:03:01;6.20;;;1.50;;
69434;SDS011;56625;54.322;18.582;2023-11-21T12:05:33;12.30;;;2.20;;
69434;SDS011;56625;54.322;18.582;2023-11-21T12:08:05;5.50;;;1.50;;
69434;SDS011;56625;54.322;18.582;2023-11-21T12:10:52;8.70;;;1.50;;
69434;SDS011;56625;54.322;18.582;2023-11-21T12:13:22;5.00;;;1.40;;
69434;SDS011;56625;54.322;18.582;2023-11-21T12:15:51;5.00;;;1.20;;
69434;SDS011;56625;54.322;18.582;2023-11-21T12:18:19;7.00;;;1.40;;
69434;SDS011;56625;54.322;18.582;2023-11-21T12:20:48;6.60;;;1.50;;
69434;SDS011;56625;54.322;18.582;2023-11-21T12:23:18;6.10;;;1.50;;
69434;SDS011;56625;54.322;18.582;2023-11-21T12:25:46;7.90;;;1.90;;
69434;SDS011;56625;54.322;18.582;2023-11-21T12:28:14;6.30;;;1.90;;
69434;SDS011;56625;54.322;18.582;2023-11-21T12:30:42;7.30;;;1.50;;
69434;SDS011;56625;54.322;18.582;2023-11-21T12:33:11;6.60;;;1.60;;
69434;SDS011;56625;54.322;18.582;2023-11-21T12:35:45;7.00;;;1.50;;
69434;SDS011;56625;54.322;18.582;2023-11-21T12:38:13;7.60;;;1.90;;
69434;SDS011;56625;54.322;18.582;2023-11-21T12:40:42;6.10;;;1.70;;
69434;SDS011;56625;54.322;18.582;2023-11-21T12:43:10;6.20;;;1.40;;
69434;SDS011;56625;54.322;18.582;2023-11-21T12:45:38;5.50;;;1.60;;
69434;SDS011;56625;54.322;18.582;2023-11-21T12:48:07;5.40;;;1.40;;
69434;SDS011;56625;54.322;18.582;2023-11-21T12:50:38;6.60;;;1.90;;
69434;SDS011;56625;54.322;18.582;2023-11-21T12:53:09;5.80;;;1.50;;
69434;SDS011;56625;54.322;18.582;2023-11-21T12:55:44;5.10;;;1.20;;
69434;SDS011;56625;54.322;18.582;2023-11-21T12:58:20;5.70;;;1.40;;
69434;SDS011;56625;54.322;18.582;2023-11-21T13:00:49;6.30;;;1.30;;
69434;SDS011;56625;54.322;18.582;2023-11-21T13:03:32;6.60;;;1.70;;
69434;SDS011;56625;54.322;18.582;2023-11-21T13:06:00;7.60;;;1.50;;
69434;SDS011;56625;54.322;18.582;2023-11-21T13:08:31;7.00;;;1.30;;
69434;SDS011;56625;54.322;18.582;2023-11-21T13:11:00;5.00;;;1.50;;
69434;SDS011;56625;54.322;18.582;2023-11-21T13:13:29;6.40;;;1.80;;
69434;SDS011;56625;54.322;18.582;2023-11-21T13:15:59;8.10;;;1.70;;
69434;SDS011;56625;54.322;18.582;2023-11-21T13:18:30;8.70;;;1.50;;
69434;SDS011;56625;54.322;18.582;2023-11-21T13:21:03;5.60;;;1.40;;
69434;SDS011;56625;54.322;18.582;2023-11-21T13:23:43;6.00;;;1.10;;
69434;SDS011;56625;54.322;18.582;2023-11-21T13:26:14;6.60;;;1.50;;
69434;SDS011;56625;54.322;18.582;2023-11-21T13:28:43;5.10;;;1.20;;
69434;SDS011;56625;54.322;18.582;2023-11-21T13:31:15;6.00;;;1.70;;
69434;SDS011;56625;54.322;18.582;2023-11-21T13:33:54;7.50;;;1.90;;
69434;SDS011;56625;54.322;18.582;2023-11-21T13:36:33;6.90;;;1.70;;
69434;SDS011;56625;54.322;18.582;2023-11-21T13:39:03;7.90;;;1.90;;
69434;SDS011;56625;54.322;18.582;2023-11-21T13:41:43;6.80;;;1.90;;
69434;SDS011;56625;54.322;18.582;2023-11-21T13:44:16;8.40;;;2.20;;
69434;SDS011;56625;54.322;18.582;2023-11-21T13:46:54;6.60;;;2.10;;
69434;SDS011;56625;54.322;18.582;2023-11-21T13:49:25;7.00;;;1.80;;
69434;SDS011;56625;54.322;18.582;2023-11-21T13:51:54;6.10;;;1.80;;
69434;SDS011;56625;54.322;18.582;2023-11-21T13:54:23;6.80;;;1.90;;
69434;SDS011;56625;54.322;18.582;2023-11-21T13:56:53;9.30;;;2.60;;
69434;SDS011;56625;54.322;18.582;2023-11-21T13:59:22;7.10;;;2.10;;
69434;SDS011;56625;54.322;18.582;2023-11-21T14:01:53;9.60;;;2.40;;
69434;SDS011;56625;54.322;18.582;2023-11-21T14:04:26;8.90;;;2.40;;
69434;SDS011;56625;54.322;18.582;2023-11-21T14:07:00;9.30;;;2.30;;
69434;SDS011;56625;54.322;18.582;2023-11-21T14:09:42;8.60;;;2.60;;
69434;SDS011;56625;54.322;18.582;2023-11-21T14:12:13;8.80;;;2.20;;
69434;SDS011;56625;54.322;18.582;2023-11-21T14:14:43;8.50;;;2.70;;
69434;SDS011;56625;54.322;18.582;2023-11-21T14:17:13;7.80;;;2.60;;
69434;SDS011;56625;54.322;18.582;2023-11-21T14:19:46;10.10;;;2.50;;
69434;SDS011;56625;54.322;18.582;2023-11-21T14:22:15;7.70;;;1.90;;
69434;SDS011;56625;54.322;18.582;2023-11-21T14:24:44;8.70;;;2.10;;
69434;SDS011;56625;54.322;18.582;2023-11-21T14:27:15;7.10;;;2.40;;
69434;SDS011;56625;54.322;18.582;2023-11-21T14:29:43;8.70;;;2.80;;
69434;SDS011;56625;54.322;18.582;2023-11-21T14:32:12;7.70;;;2.30;;
69434;SDS011;56625;54.322;18.582;2023-11-21T14:34:43;8.00;;;2.10;;
69434;SDS011;56625;54.322;18.582;2023-11-21T14:37:15;8.80;;;3.00;;
69434;SDS011;56625;54.322;18.582;2023-11-21T14:39:43;8.50;;;3.00;;
69434;SDS011;56625;54.322;18.582;2023-11-21T14:42:17;8.50;;;2.80;;
69434;SDS011;56625;54.322;18.582;2023-11-21T14:44:52;8.30;;;2.50;;
69434;SDS011;56625;54.322;18.582;2023-11-21T14:47:23;7.10;;;2.30;;
69434;SDS011;56625;54.322;18.582;2023-11-21T14:49:55;7.10;;;1.80;;
69434;SDS011;56625;54.322;18.582;2023-11-21T14:52:27;7.90;;;1.90;;
69434;SDS011;56625;54.322;18.582;2023-11-21T14:55:04;5.40;;;1.70;;
69434;SDS011;56625;54.322;18.582;2023-11-21T14:57:51;6.90;;;1.80;;
69434;SDS011;56625;54.322;18.582;2023-11-21T15:00:20;6.10;;;1.60;;
69434;SDS011;56625;54.322;18.582;2023-11-21T15:03:05;7.40;;;2.20;;